Time;durP1;ratioP1;P1;durP2;ratioP2;P2;SDS_P1;SDS_P2;PMS_P1;PMS_P2;Temp;Humidity;BMP_temperature;BMP_pressure;BME280_temperature;BME280_humidity;BME280_pressure;Samples;Min_cycle;Max_cycle;Signal;HPM_P1;HPM_P2
2023/05/29 00:00:32;;;;;;;1.73;1.10;;;18.40;99.90;;;;;;5097585;28;20706;-50
2023/05/29 00:03:01;;;;;;;2.17;1.35;;;18.40;99.70;;;;;;5097684;28;20428;-52
2023/05/29 00:05:28;;;;;;;2.40;1.20;;;18.30;99.70;;;;;;5097788;28;20418;-53
2023/05/29 00:07:55;;;;;;;2.00;1.13;;;18.30;99.90;;;;;;5097722;28;20503;-51
2023/05/29 00:10:22;;;;;;;1.70;1.08;;;18.20;99.90;;;;;;5098108;28;20425;-53
2023/05/29 00:12:51;;;;;;;2.25;1.20;;;18.10;99.90;;;;;;5097721;28;20884;-53
2023/05/29 00:15:18;;;;;;;2.47;1.40;;;17.90;99.90;;;;;;5097779;28;20520;-54
2023/05/29 00:17:46;;;;;;;3.42;1.40;;;17.90;99.90;;;;;;5097753;28;20429;-55
2023/05/29 00:20:13;;;;;;;3.22;1.30;;;17.80;99.90;;;;;;5097346;28;20461;-54
2023/05/29 00:22:41;;;;;;;2.50;1.10;;;17.90;99.90;;;;;;5096009;28;20432;-53
2023/05/29 00:25:09;;;;;;;2.00;1.13;;;17.90;99.90;;;;;;5097503;28;20475;-54
2023/05/29 00:27:36;;;;;;;2.00;1.10;;;17.90;99.90;;;;;;5096799;28;20430;-54
2023/05/29 00:30:06;;;;;;;2.10;0.90;;;17.90;99.90;;;;;;5097323;28;20417;-52
2023/05/29 00:32:33;;;;;;;1.90;1.00;;;18.00;99.90;;;;;;5096453;28;20489;-52
2023/05/29 00:35:00;;;;;;;2.30;1.30;;;18.10;99.90;;;;;;5097639;28;20433;-53
2023/05/29 00:37:28;;;;;;;2.10;1.00;;;18.00;99.90;;;;;;5097141;28;20432;-48
2023/05/29 00:39:55;;;;;;;2.00;1.00;;;18.10;99.90;;;;;;5097451;28;20440;-55
2023/05/29 00:42:21;;;;;;;2.10;1.00;;;18.00;99.90;;;;;;5096097;28;20483;-50
2023/05/29 00:44:49;;;;;;;1.92;1.00;;;18.00;99.90;;;;;;5097222;28;20413;-54
2023/05/29 00:47:17;;;;;;;1.77;1.10;;;17.90;99.90;;;;;;5097447;28;20463;-54
2023/05/29 00:49:44;;;;;;;4.50;1.10;;;17.90;99.90;;;;;;5097288;28;20433;-53
2023/05/29 00:52:13;;;;;;;1.70;1.00;;;17.90;99.90;;;;;;5097039;28;20449;-53
2023/05/29 00:54:44;;;;;;;2.50;0.90;;;17.80;99.90;;;;;;5096765;28;20902;-54
2023/05/29 00:57:13;;;;;;;1.85;1.00;;;17.80;99.90;;;;;;5096811;28;20477;-52
2023/05/29 00:59:42;;;;;;;3.30;1.00;;;17.70;99.90;;;;;;5096794;28;20745;-55
2023/05/29 01:02:09;;;;;;;3.80;1.00;;;17.80;99.90;;;;;;5096929;28;20832;-53
2023/05/29 01:04:38;;;;;;;2.90;0.90;;;17.80;99.90;;;;;;5095956;28;20429;-54
2023/05/29 01:07:06;;;;;;;2.00;1.00;;;17.80;99.90;;;;;;5096750;28;20434;-52
2023/05/29 01:09:36;;;;;;;2.80;1.00;;;17.80;99.90;;;;;;5096472;28;20433;-53
2023/05/29 01:12:16;;;;;;;1.97;0.93;;;17.70;99.90;;;;;;5096044;28;20414;-54
2023/05/29 01:14:55;;;;;;;1.45;0.90;;;17.80;99.90;;;;;;5096530;28;20418;-50
2023/05/29 01:17:30;;;;;;;2.55;1.00;;;17.80;99.90;;;;;;5096060;28;20436;-52
2023/05/29 01:20:13;;;;;;;2.38;1.00;;;17.60;99.90;;;;;;5095838;28;20924;-52
2023/05/29 01:22:59;;;;;;;2.70;1.30;;;17.60;99.90;;;;;;5096552;28;20830;-51
2023/05/29 01:25:35;;;;;;;1.88;1.20;;;17.40;99.90;;;;;;5096401;28;20426;-50
2023/05/29 01:28:07;;;;;;;2.20;1.05;;;17.40;99.90;;;;;;5096476;28;20433;-53
2023/05/29 01:30:36;;;;;;;2.23;0.90;;;17.30;99.90;;;;;;5096212;28;20418;-52
2023/05/29 01:33:04;;;;;;;1.80;1.00;;;17.20;99.90;;;;;;5096316;28;20418;-54
2023/05/29 01:35:32;;;;;;;1.60;1.00;;;17.20;99.90;;;;;;5096211;28;20429;-54
2023/05/29 01:37:59;;;;;;;1.88;1.00;;;17.10;99.90;;;;;;5096055;28;20422;-50
2023/05/29 01:40:26;;;;;;;1.98;0.90;;;17.10;99.90;;;;;;5095721;28;20520;-54
2023/05/29 01:42:54;;;;;;;2.00;0.90;;;17.00;99.90;;;;;;5096052;28;20758;-52
2023/05/29 01:45:23;;;;;;;1.20;0.90;;;16.80;99.90;;;;;;5095727;28;20436;-54
2023/05/29 01:47:50;;;;;;;3.03;1.00;;;16.80;99.90;;;;;;5094975;28;20414;-55
2023/05/29 01:50:19;;;;;;;1.90;0.90;;;16.60;99.90;;;;;;5095988;28;20414;-52
2023/05/29 01:52:46;;;;;;;2.97;0.90;;;16.50;99.90;;;;;;5096242;28;20437;-53
2023/05/29 01:55:13;;;;;;;1.42;0.90;;;16.50;99.90;;;;;;5095928;28;20433;-53
2023/05/29 01:57:42;;;;;;;1.70;0.90;;;16.50;99.90;;;;;;5095629;28;20426;-54
2023/05/29 02:00:10;;;;;;;1.80;0.80;;;16.50;99.90;;;;;;5095541;28;20437;-54
2023/05/29 02:02:40;;;;;;;1.92;0.90;;;16.50;99.90;;;;;;5095707;28;20962;-54
2023/05/29 02:05:08;;;;;;;1.80;0.90;;;16.50;99.90;;;;;;5095726;28;20445;-54
2023/05/29 02:07:36;;;;;;;1.50;0.90;;;16.50;99.90;;;;;;5095943;28;20776;-55
2023/05/29 02:10:03;;;;;;;1.10;0.70;;;16.70;99.90;;;;;;5095582;28;20837;-56
2023/05/29 02:12:30;;;;;;;1.98;1.00;;;16.80;99.90;;;;;;5095422;28;20430;-52
2023/05/29 02:14:57;;;;;;;1.38;0.90;;;16.90;99.90;;;;;;5095510;28;20783;-56
2023/05/29 02:17:25;;;;;;;2.50;0.90;;;17.00;99.90;;;;;;5095412;28;20846;-54
2023/05/29 02:19:53;;;;;;;1.70;1.00;;;17.00;99.90;;;;;;5096009;28;20852;-53
2023/05/29 02:22:20;;;;;;;1.25;0.80;;;16.90;99.90;;;;;;5095398;28;20448;-55
2023/05/29 02:24:47;;;;;;;1.20;0.80;;;16.90;99.90;;;;;;5095711;28;20440;-53
2023/05/29 02:27:14;;;;;;;1.88;1.00;;;17.00;99.90;;;;;;5095071;28;20841;-53
2023/05/29 02:29:41;;;;;;;1.90;1.00;;;16.90;99.90;;;;;;5095248;28;20422;-54
2023/05/29 02:32:08;;;;;;;1.70;1.10;;;16.80;99.90;;;;;;5095285;28;20472;-55
2023/05/29 02:34:35;;;;;;;1.20;0.88;;;16.70;99.90;;;;;;5095210;28;20479;-54
2023/05/29 02:37:04;;;;;;;1.30;0.80;;;16.70;99.90;;;;;;5094758;28;20516;-53
2023/05/29 02:39:31;;;;;;;1.80;0.90;;;16.50;99.90;;;;;;5094336;28;20426;-51
2023/05/29 02:41:58;;;;;;;2.30;0.88;;;16.40;99.90;;;;;;5095189;28;20436;-54
2023/05/29 02:44:25;;;;;;;1.90;0.98;;;16.20;99.90;;;;;;5095181;28;20517;-54
2023/05/29 02:46:52;;;;;;;1.40;1.00;;;16.20;99.90;;;;;;5095059;28;20461;-54
2023/05/29 02:49:22;;;;;;;2.13;0.95;;;16.10;99.90;;;;;;5094834;28;20426;-51
2023/05/29 02:51:49;;;;;;;1.55;0.90;;;16.10;99.90;;;;;;5095145;28;20422;-48
2023/05/29 02:54:17;;;;;;;2.85;1.00;;;16.10;99.90;;;;;;5095512;28;20429;-53
2023/05/29 02:56:44;;;;;;;1.98;1.08;;;16.10;99.90;;;;;;5095391;28;20425;-53
2023/05/29 02:59:11;;;;;;;1.90;0.90;;;16.10;99.90;;;;;;5094988;28;20466;-52
2023/05/29 03:01:38;;;;;;;3.70;1.00;;;16.10;99.90;;;;;;5095301;28;20433;-52
2023/05/29 03:04:05;;;;;;;1.98;0.90;;;16.00;99.90;;;;;;5095086;28;20429;-52
2023/05/29 03:06:33;;;;;;;2.00;0.90;;;16.00;99.90;;;;;;5094931;28;20426;-54
2023/05/29 03:09:00;;;;;;;2.53;0.90;;;16.00;99.90;;;;;;5093362;28;20428;-53
2023/05/29 03:11:30;;;;;;;1.63;0.90;;;16.00;99.90;;;;;;5094856;28;20417;-54
2023/05/29 03:13:57;;;;;;;1.50;0.90;;;15.90;99.90;;;;;;5094820;28;20429;-54
2023/05/29 03:16:25;;;;;;;1.20;0.80;;;16.00;99.90;;;;;;5094428;28;20717;-51
2023/05/29 03:18:52;;;;;;;2.50;0.98;;;16.00;99.90;;;;;;5094058;28;20430;-52
2023/05/29 03:21:19;;;;;;;1.70;1.00;;;16.00;99.90;;;;;;5093085;28;20722;-51
2023/05/29 03:23:46;;;;;;;2.10;0.93;;;16.00;99.90;;;;;;5094339;28;20417;-55
2023/05/29 03:26:13;;;;;;;1.50;0.80;;;15.90;99.90;;;;;;5094653;28;20433;-55
2023/05/29 03:28:41;;;;;;;1.73;0.90;;;15.80;99.90;;;;;;5095005;28;20433;-53
2023/05/29 03:31:09;;;;;;;1.80;1.00;;;15.70;99.90;;;;;;5093336;28;20426;-51
2023/05/29 03:33:36;;;;;;;2.00;0.90;;;15.80;99.90;;;;;;5094293;28;20445;-53
2023/05/29 03:36:04;;;;;;;1.80;0.90;;;15.70;99.90;;;;;;5093851;28;20421;-53
2023/05/29 03:38:31;;;;;;;2.22;0.90;;;15.70;99.90;;;;;;5094607;28;20421;-55
2023/05/29 03:40:58;;;;;;;2.70;1.00;;;15.60;99.90;;;;;;5094471;28;20434;-51
2023/05/29 03:43:25;;;;;;;1.60;0.90;;;15.50;99.90;;;;;;5093158;28;20422;-55
2023/05/29 03:45:53;;;;;;;1.43;0.90;;;15.40;99.90;;;;;;5093665;28;20822;-54
2023/05/29 03:48:20;;;;;;;2.05;0.90;;;15.40;99.90;;;;;;5094581;28;20907;-55
2023/05/29 03:50:48;;;;;;;2.20;1.00;;;15.30;99.90;;;;;;5094640;28;20468;-53
2023/05/29 03:53:15;;;;;;;1.58;0.90;;;15.30;99.90;;;;;;5094236;28;20764;-54
2023/05/29 03:55:42;;;;;;;2.53;0.90;;;15.20;99.90;;;;;;5094308;28;20461;-53
2023/05/29 03:58:12;;;;;;;1.48;0.90;;;15.30;99.90;;;;;;5094170;28;20429;-50
2023/05/29 04:00:39;;;;;;;2.00;0.80;;;15.20;99.90;;;;;;5093992;28;20426;-55
2023/05/29 04:03:07;;;;;;;1.70;0.80;;;15.20;99.90;;;;;;5096231;28;20422;-51
2023/05/29 04:05:35;;;;;;;2.40;0.90;;;15.20;99.90;;;;;;5098381;28;20926;-56
2023/05/29 04:08:04;;;;;;;2.30;0.90;;;15.30;99.90;;;;;;5097075;28;20425;-56
2023/05/29 04:10:33;;;;;;;2.67;1.00;;;15.40;99.90;;;;;;5098403;28;20426;-52
2023/05/29 04:13:00;;;;;;;2.05;0.90;;;15.40;99.90;;;;;;5098206;28;20451;-53
2023/05/29 04:15:27;;;;;;;2.25;1.10;;;15.60;99.90;;;;;;5097950;28;20433;-54
2023/05/29 04:17:55;;;;;;;1.98;0.90;;;15.70;99.90;;;;;;5098105;28;20487;-52
2023/05/29 04:20:23;;;;;;;2.28;0.80;;;15.80;99.90;;;;;;5097989;28;20509;-54
2023/05/29 04:22:50;;;;;;;1.75;0.90;;;15.90;99.90;;;;;;5097939;28;20440;-54
2023/05/29 04:25:17;;;;;;;2.15;0.90;;;16.00;99.90;;;;;;5097826;28;20529;-53
2023/05/29 04:27:48;;;;;;;3.45;1.20;;;16.00;99.90;;;;;;5097868;28;20433;-54
2023/05/29 04:30:16;;;;;;;2.78;0.98;;;15.90;99.90;;;;;;5096938;28;20809;-53
2023/05/29 04:32:43;;;;;;;1.60;1.00;;;15.60;99.90;;;;;;5097195;28;20425;-53
2023/05/29 04:35:10;;;;;;;1.30;0.80;;;15.60;99.90;;;;;;5097425;28;20501;-55
2023/05/29 04:37:39;;;;;;;2.17;0.90;;;15.50;99.90;;;;;;5097652;28;20853;-52
2023/05/29 04:40:09;;;;;;;2.83;0.90;;;15.60;99.90;;;;;;5097267;28;20728;-54
2023/05/29 04:42:36;;;;;;;1.77;0.90;;;15.60;99.90;;;;;;5097399;28;20434;-51
2023/05/29 04:45:04;;;;;;;1.85;0.90;;;15.60;99.90;;;;;;5097392;28;20826;-53
2023/05/29 04:47:32;;;;;;;1.50;0.90;;;15.50;99.90;;;;;;5096855;28;20505;-54
2023/05/29 04:50:00;;;;;;;2.20;0.80;;;15.40;99.90;;;;;;5097343;28;20812;-52
2023/05/29 04:52:28;;;;;;;1.38;0.88;;;15.40;99.90;;;;;;5096629;28;20433;-48
2023/05/29 04:54:57;;;;;;;1.40;0.85;;;15.50;99.90;;;;;;5097196;28;20483;-54
2023/05/29 04:57:24;;;;;;;2.20;0.90;;;15.60;99.90;;;;;;5097477;28;20558;-52
2023/05/29 04:59:51;;;;;;;2.80;0.90;;;15.60;99.90;;;;;;5096925;28;20736;-53
2023/05/29 05:02:18;;;;;;;1.92;1.00;;;15.70;99.90;;;;;;5096144;28;20466;-52
2023/05/29 05:04:46;;;;;;;1.95;0.90;;;15.60;99.90;;;;;;5097445;28;20422;-53
2023/05/29 05:07:13;;;;;;;2.13;1.00;;;15.50;99.90;;;;;;5096901;28;20529;-51
2023/05/29 05:09:40;;;;;;;1.40;0.90;;;15.60;99.90;;;;;;5096894;28;20475;-54
2023/05/29 05:12:08;;;;;;;1.48;0.93;;;15.60;99.90;;;;;;5096194;28;20421;-53
2023/05/29 05:14:35;;;;;;;1.77;0.90;;;15.50;99.90;;;;;;5094773;28;20418;-52
2023/05/29 05:17:02;;;;;;;2.50;0.80;;;15.70;99.90;;;;;;5096818;28;20486;-54
2023/05/29 05:19:30;;;;;;;1.90;1.00;;;15.80;99.90;;;;;;5096507;28;20425;-54
2023/05/29 05:21:57;;;;;;;2.20;0.90;;;15.80;99.90;;;;;;5096406;28;20437;-52
2023/05/29 05:24:24;;;;;;;1.58;0.90;;;15.80;99.90;;;;;;5096666;28;20487;-53
2023/05/29 05:26:51;;;;;;;1.38;0.90;;;15.70;99.90;;;;;;5096471;28;20777;-52
2023/05/29 05:29:20;;;;;;;2.00;1.02;;;15.80;99.90;;;;;;5096689;28;20919;-51
2023/05/29 05:31:47;;;;;;;2.40;1.00;;;16.00;99.90;;;;;;5096408;28;20426;-51
2023/05/29 05:34:14;;;;;;;1.85;0.80;;;16.00;99.90;;;;;;5096357;28;20441;-55
2023/05/29 05:36:41;;;;;;;3.67;1.00;;;16.10;99.90;;;;;;5096518;28;20453;-54
2023/05/29 05:39:08;;;;;;;1.60;0.90;;;16.20;99.90;;;;;;5096206;28;20418;-53
2023/05/29 05:41:35;;;;;;;1.75;1.00;;;16.20;99.90;;;;;;5095848;28;20462;-54
2023/05/29 05:44:02;;;;;;;2.15;1.00;;;16.20;99.90;;;;;;5096158;28;20841;-55
2023/05/29 05:46:30;;;;;;;2.00;1.10;;;16.30;99.90;;;;;;5096600;28;20433;-52
2023/05/29 05:48:57;;;;;;;1.67;0.90;;;16.30;99.90;;;;;;5096068;28;20434;-53
2023/05/29 05:51:25;;;;;;;2.08;0.90;;;16.40;99.90;;;;;;5096641;28;20833;-54
2023/05/29 05:53:52;;;;;;;2.00;0.90;;;16.60;99.90;;;;;;5095752;28;20425;-56
2023/05/29 05:56:19;;;;;;;2.13;0.90;;;16.70;99.90;;;;;;5095493;28;20417;-53
2023/05/29 05:58:46;;;;;;;1.20;0.90;;;16.80;99.90;;;;;;5095776;28;20741;-56
2023/05/29 06:01:14;;;;;;;2.25;1.00;;;16.80;99.90;;;;;;5096227;28;20469;-53
2023/05/29 06:03:42;;;;;;;3.42;1.00;;;16.80;99.90;;;;;;5095620;28;20430;-55
2023/05/29 06:06:09;;;;;;;1.90;0.90;;;16.70;99.90;;;;;;5095967;28;20418;-52
2023/05/29 06:08:37;;;;;;;3.53;1.00;;;16.70;99.90;;;;;;5095237;28;20428;-52
2023/05/29 06:11:04;;;;;;;2.00;1.00;;;16.70;99.90;;;;;;5095753;28;20437;-55
2023/05/29 06:13:31;;;;;;;2.42;1.00;;;16.60;99.90;;;;;;5095565;28;20429;-59
2023/05/29 06:15:58;;;;;;;2.57;1.00;;;16.70;99.90;;;;;;5095380;28;20430;-53
2023/05/29 06:18:25;;;;;;;1.73;0.90;;;16.90;99.90;;;;;;5095520;28;20703;-52
2023/05/29 06:20:54;;;;;;;3.00;0.90;;;17.00;99.90;;;;;;5095705;28;20504;-55
2023/05/29 06:23:22;;;;;;;2.00;1.00;;;17.10;99.90;;;;;;5095392;28;20487;-52
2023/05/29 06:25:49;;;;;;;2.20;1.00;;;17.20;99.90;;;;;;5092384;28;20768;-55
2023/05/29 06:28:16;;;;;;;2.20;1.10;;;17.40;99.90;;;;;;5091749;28;20445;-53
2023/05/29 06:30:43;;;;;;;1.60;1.00;;;17.50;99.90;;;;;;5091719;28;20449;-54
2023/05/29 06:33:10;;;;;;;1.50;0.80;;;17.40;99.90;;;;;;5092199;28;20413;-53
2023/05/29 06:35:37;;;;;;;2.00;0.90;;;17.60;99.90;;;;;;5092023;28;20422;-52
2023/05/29 06:38:05;;;;;;;1.88;0.98;;;17.60;99.90;;;;;;5090447;28;20425;-55
2023/05/29 06:40:32;;;;;;;1.42;1.00;;;17.70;99.90;;;;;;5092778;28;20430;-55
2023/05/29 06:43:01;;;;;;;2.00;0.90;;;17.80;99.90;;;;;;5094926;28;20845;-56
2023/05/29 06:45:28;;;;;;;1.20;0.90;;;17.80;99.90;;;;;;5095035;28;20422;-53
2023/05/29 06:47:55;;;;;;;1.63;0.90;;;17.80;99.90;;;;;;5095048;28;20410;-51
2023/05/29 06:50:22;;;;;;;2.58;0.90;;;18.00;99.90;;;;;;5094992;28;20845;-50
2023/05/29 06:52:49;;;;;;;2.03;0.98;;;18.00;99.90;;;;;;5095228;28;20416;-55
2023/05/29 06:55:18;;;;;;;2.13;1.00;;;18.10;99.90;;;;;;5095233;28;20434;-55
2023/05/29 06:57:45;;;;;;;2.17;0.95;;;18.30;99.90;;;;;;5094861;28;20430;-55
2023/05/29 07:00:13;;;;;;;1.95;0.90;;;18.40;99.90;;;;;;5094837;28;20430;-53
2023/05/29 07:02:40;;;;;;;1.30;0.85;;;18.30;99.90;;;;;;5094922;28;20429;-53
2023/05/29 07:05:08;;;;;;;1.70;0.88;;;18.40;99.90;;;;;;5094840;28;20440;-54
2023/05/29 07:07:35;;;;;;;2.60;1.00;;;18.50;99.90;;;;;;5095137;28;20856;-55
2023/05/29 07:10:02;;;;;;;1.58;0.90;;;18.60;99.90;;;;;;5094775;28;20461;-52
2023/05/29 07:12:31;;;;;;;3.00;0.90;;;18.70;99.90;;;;;;5094798;28;20846;-54
2023/05/29 07:14:58;;;;;;;1.85;0.90;;;18.70;99.90;;;;;;5094871;28;20422;-55
2023/05/29 07:17:25;;;;;;;1.30;0.98;;;18.90;99.90;;;;;;5094779;28;20421;-55
2023/05/29 07:19:53;;;;;;;2.03;0.90;;;18.90;99.90;;;;;;5094473;28;20430;-52
2023/05/29 07:22:21;;;;;;;2.53;0.90;;;18.90;99.90;;;;;;5094378;28;20445;-57
2023/05/29 07:24:48;;;;;;;2.20;0.90;;;18.90;99.90;;;;;;5094370;28;20422;-53
2023/05/29 07:27:15;;;;;;;1.58;1.00;;;18.90;99.90;;;;;;5094453;28;20422;-51
2023/05/29 07:29:43;;;;;;;3.07;1.00;;;18.70;99.90;;;;;;5094962;28;20710;-50
2023/05/29 07:32:10;;;;;;;2.85;0.90;;;18.70;99.90;;;;;;5094705;28;20432;-55
2023/05/29 07:34:37;;;;;;;1.40;0.90;;;18.70;99.90;;;;;;5094988;28;20428;-51
2023/05/29 07:37:07;;;;;;;1.70;1.00;;;18.80;99.90;;;;;;5095041;28;20425;-49
2023/05/29 07:39:35;;;;;;;1.63;0.90;;;18.90;99.90;;;;;;5098664;28;20434;-55
2023/05/29 07:42:03;;;;;;;2.00;1.00;;;19.00;99.90;;;;;;5098582;28;20430;-54
2023/05/29 07:44:30;;;;;;;2.00;0.90;;;19.10;99.90;;;;;;5098249;28;20421;-54
2023/05/29 07:46:58;;;;;;;2.05;0.90;;;19.10;99.90;;;;;;5098210;28;20706;-54
2023/05/29 07:49:26;;;;;;;3.00;0.90;;;19.20;99.90;;;;;;5098727;28;20432;-54
2023/05/29 07:51:53;;;;;;;2.92;0.90;;;19.30;99.90;;;;;;5098382;28;20483;-54
2023/05/29 07:54:21;;;;;;;2.35;1.00;;;19.40;99.90;;;;;;5098341;28;20437;-52
2023/05/29 07:56:48;;;;;;;1.75;0.90;;;19.40;99.90;;;;;;5097074;28;20422;-52
2023/05/29 07:59:15;;;;;;;1.50;0.90;;;19.40;99.90;;;;;;5097713;28;20422;-54
2023/05/29 08:01:43;;;;;;;1.30;0.80;;;19.60;99.90;;;;;;5098354;28;20422;-54
2023/05/29 08:04:12;;;;;;;2.20;0.80;;;19.90;99.90;;;;;;5098194;28;20414;-51
2023/05/29 08:06:42;;;;;;;2.60;1.20;;;19.90;99.90;;;;;;5098088;28;20427;-54
2023/05/29 08:09:09;;;;;;;1.60;0.93;;;20.10;99.90;;;;;;5097511;28;20421;-55
2023/05/29 08:11:37;;;;;;;1.63;0.80;;;20.10;99.90;;;;;;5097822;28;20479;-55
2023/05/29 08:14:04;;;;;;;1.40;0.90;;;20.20;99.90;;;;;;5097513;28;20715;-55
2023/05/29 08:16:31;;;;;;;1.40;0.90;;;20.20;99.90;;;;;;5097555;28;20421;-54
2023/05/29 08:18:58;;;;;;;2.20;0.93;;;20.40;99.90;;;;;;5095388;28;20753;-51
2023/05/29 08:21:27;;;;;;;1.80;1.20;;;20.50;99.90;;;;;;5096558;28;20433;-55
2023/05/29 08:23:54;;;;;;;2.03;0.90;;;20.60;99.90;;;;;;5096835;28;20460;-54
2023/05/29 08:26:21;;;;;;;1.80;0.90;;;20.70;99.90;;;;;;5097434;28;20430;-53
2023/05/29 08:28:48;;;;;;;1.40;0.90;;;20.80;99.90;;;;;;5097223;28;20478;-55
2023/05/29 08:31:15;;;;;;;1.35;0.90;;;20.90;99.90;;;;;;5097100;28;20746;-54
2023/05/29 08:33:42;;;;;;;3.05;0.90;;;20.90;99.90;;;;;;5097427;28;20421;-55
2023/05/29 08:36:10;;;;;;;1.80;0.90;;;21.00;99.90;;;;;;5097134;28;20846;-54
2023/05/29 08:38:38;;;;;;;1.47;0.90;;;20.90;99.90;;;;;;5096496;28;20413;-53
2023/05/29 08:41:08;;;;;;;2.30;0.90;;;20.90;99.90;;;;;;5097527;28;20430;-51
2023/05/29 08:43:36;;;;;;;1.50;1.00;;;21.00;99.90;;;;;;5096692;28;20434;-54
2023/05/29 08:46:04;;;;;;;1.83;1.00;;;21.20;99.90;;;;;;5096279;28;20520;-54
2023/05/29 08:48:32;;;;;;;2.22;0.90;;;21.30;99.90;;;;;;5096700;28;20428;-54
2023/05/29 08:50:59;;;;;;;2.30;0.90;;;21.30;99.90;;;;;;5096132;28;20418;-52
2023/05/29 08:53:27;;;;;;;1.73;0.90;;;21.30;99.90;;;;;;5094386;28;20421;-53
2023/05/29 08:55:57;;;;;;;1.60;1.00;;;21.30;99.90;;;;;;5095399;28;20750;-50
2023/05/29 08:58:24;;;;;;;1.73;1.00;;;21.50;99.90;;;;;;5096135;28;20852;-49
2023/05/29 09:00:52;;;;;;;3.40;1.10;;;21.60;99.90;;;;;;5096034;28;20425;-51
2023/05/29 09:03:21;;;;;;;1.48;1.00;;;21.60;99.90;;;;;;5095873;28;20434;-54
2023/05/29 09:05:49;;;;;;;1.50;0.90;;;21.50;99.90;;;;;;5094642;28;20829;-55
2023/05/29 09:08:16;;;;;;;2.10;0.90;;;21.50;99.90;;;;;;5096895;28;20465;-56
2023/05/29 09:10:44;;;;;;;1.60;0.80;;;21.60;99.90;;;;;;5094714;28;20426;-53
2023/05/29 09:13:13;;;;;;;2.20;0.88;;;21.90;99.90;;;;;;5094602;28;20517;-55
2023/05/29 09:15:42;;;;;;;2.08;0.90;;;22.10;99.90;;;;;;5096020;28;20425;-51
2023/05/29 09:18:10;;;;;;;1.92;1.00;;;22.00;99.90;;;;;;5095853;28;20797;-54
2023/05/29 09:20:37;;;;;;;2.80;0.90;;;22.00;99.90;;;;;;5093953;28;20418;-55
2023/05/29 09:23:06;;;;;;;2.20;1.00;;;22.20;99.90;;;;;;5095272;28;20430;-55
2023/05/29 09:25:36;;;;;;;1.50;0.80;;;22.40;99.90;;;;;;5095865;28;20434;-53
2023/05/29 09:28:05;;;;;;;2.88;1.40;;;22.40;99.90;;;;;;5096160;28;20469;-55
2023/05/29 09:30:36;;;;;;;1.20;0.80;;;22.50;99.90;;;;;;5095320;28;20487;-52
2023/05/29 09:33:04;;;;;;;1.33;0.90;;;22.70;99.90;;;;;;5095708;28;20416;-53
2023/05/29 09:35:39;;;;;;;1.63;1.00;;;23.00;99.90;;;;;;5099080;28;20436;-52
2023/05/29 09:38:07;;;;;;;1.70;0.98;;;23.00;99.90;;;;;;5100827;28;20433;-52
2023/05/29 09:40:35;;;;;;;1.55;0.90;;;23.10;99.90;;;;;;5095770;28;20795;-52
2023/05/29 09:43:07;;;;;;;2.03;0.90;;;23.30;99.90;;;;;;5114939;28;20822;-54
2023/05/29 09:45:39;;;;;;;1.60;1.10;;;23.30;99.90;;;;;;5114981;28;20563;-55
2023/05/29 09:48:07;;;;;;;1.58;0.90;;;23.00;99.90;;;;;;5115032;28;20781;-55
2023/05/29 09:50:35;;;;;;;2.45;0.80;;;23.10;99.90;;;;;;5096166;28;20433;-53
2023/05/29 09:53:03;;;;;;;2.10;1.00;;;23.50;99.90;;;;;;5098003;28;20436;-50
2023/05/29 09:55:33;;;;;;;1.80;0.90;;;23.60;99.90;;;;;;5103506;28;20447;-52
2023/05/29 09:58:01;;;;;;;1.75;0.90;;;23.70;99.90;;;;;;5113540;28;20882;-50
2023/05/29 10:00:30;;;;;;;1.70;1.00;;;23.70;99.90;;;;;;5104189;28;20443;-53
2023/05/29 10:02:59;;;;;;;1.80;1.00;;;23.80;99.90;;;;;;5108993;28;20437;-53
2023/05/29 10:05:26;;;;;;;1.50;0.90;;;23.80;99.90;;;;;;5094081;28;20532;-53
2023/05/29 10:07:55;;;;;;;1.90;0.90;;;23.90;99.90;;;;;;5094636;28;20430;-53
2023/05/29 10:10:26;;;;;;;1.38;0.90;;;24.20;99.60;;;;;;5094409;28;20555;-54
2023/05/29 10:12:55;;;;;;;2.00;0.90;;;24.60;98.60;;;;;;5112651;28;20470;-53
2023/05/29 10:15:24;;;;;;;1.40;0.90;;;24.90;97.20;;;;;;5105892;28;20465;-54
2023/05/29 10:17:54;;;;;;;1.42;0.80;;;25.00;96.30;;;;;;5094092;28;20491;-52
2023/05/29 10:20:24;;;;;;;1.80;0.90;;;25.30;93.60;;;;;;5093171;28;20453;-55
2023/05/29 10:22:55;;;;;;;2.00;0.70;;;25.60;92.60;;;;;;5106473;28;20575;-55
2023/05/29 10:25:23;;;;;;;1.60;0.73;;;26.00;91.20;;;;;;5108547;28;20740;-54
2023/05/29 10:27:51;;;;;;;3.17;0.73;;;26.40;88.90;;;;;;5097478;28;20429;-54
2023/05/29 10:30:29;;;;;;;1.92;0.80;;;26.60;85.00;;;;;;5099861;28;20485;-55
2023/05/29 10:33:29;;;;;;;1.30;0.80;;;26.80;80.20;;;;;;5107635;28;20438;-55
2023/05/29 10:36:05;;;;;;;1.50;0.80;;;27.10;74.20;;;;;;5093603;28;20482;-57
2023/05/29 10:38:33;;;;;;;1.30;0.80;;;26.90;72.50;;;;;;5094749;28;20423;-55
2023/05/29 10:41:30;;;;;;;1.57;0.83;;;27.00;71.40;;;;;;5099837;28;20438;-56
2023/05/29 10:43:58;;;;;;;1.00;0.70;;;27.30;69.30;;;;;;5102733;28;20432;-56
2023/05/29 10:47:01;;;;;;;1.70;0.80;;;27.30;68.90;;;;;;5096655;28;20856;-55
2023/05/29 10:49:28;;;;;;;1.30;0.80;;;27.20;68.00;;;;;;5095329;28;20515;-56
2023/05/29 10:51:58;;;;;;;1.67;0.80;;;27.20;66.40;;;;;;5106266;28;20718;-54
2023/05/29 10:54:26;;;;;;;1.65;0.80;;;27.30;65.40;;;;;;5102777;28;20750;-55
2023/05/29 10:56:56;;;;;;;2.83;0.70;;;27.50;63.40;;;;;;5096070;28;20439;-55
2023/05/29 10:59:26;;;;;;;1.10;0.70;;;27.60;62.90;;;;;;5107193;28;20429;-56
2023/05/29 11:01:54;;;;;;;1.30;0.80;;;27.70;61.10;;;;;;5092576;28;20480;-55
2023/05/29 11:04:30;;;;;;;1.40;0.70;;;27.40;59.90;;;;;;5105584;28;20432;-57
2023/05/29 11:06:59;;;;;;;1.40;0.80;;;27.20;60.80;;;;;;5108464;28;20423;-57
2023/05/29 11:09:32;;;;;;;0.90;0.70;;;27.40;60.40;;;;;;5093973;28;20430;-57
2023/05/29 11:12:35;;;;;;;3.25;0.80;;;27.40;59.70;;;;;;5093486;28;20468;-55
2023/05/29 11:15:05;;;;;;;1.75;0.70;;;27.50;58.30;;;;;;5098236;28;20413;-57
2023/05/29 11:17:34;;;;;;;1.30;0.75;;;27.70;57.70;;;;;;5100080;28;20942;-56
2023/05/29 11:20:07;;;;;;;2.42;0.88;;;28.00;56.10;;;;;;5105108;28;20435;-57
2023/05/29 11:22:57;;;;;;;1.10;0.80;;;28.30;55.40;;;;;;5119462;28;20424;-56
2023/05/29 11:25:24;;;;;;;1.00;0.70;;;28.50;55.30;;;;;;5115527;28;20790;-55
2023/05/29 11:27:52;;;;;;;1.10;0.70;;;28.60;55.90;;;;;;5108956;28;20430;-56
2023/05/29 11:30:19;;;;;;;1.30;0.80;;;28.70;56.10;;;;;;5096870;28;20793;-55
2023/05/29 11:32:47;;;;;;;1.73;0.80;;;28.90;54.60;;;;;;5097814;28;20494;-56
2023/05/29 11:35:15;;;;;;;1.40;0.70;;;28.70;53.20;;;;;;5098226;28;20453;-56
2023/05/29 11:37:45;;;;;;;1.38;0.70;;;29.00;52.50;;;;;;5097484;28;20432;-57
2023/05/29 11:40:15;;;;;;;2.00;0.70;;;29.00;53.00;;;;;;5098585;28;20453;-58
2023/05/29 11:42:45;;;;;;;1.17;0.80;;;28.50;52.40;;;;;;5098410;28;20740;-57
2023/05/29 11:45:15;;;;;;;1.38;0.80;;;28.60;53.20;;;;;;5098347;28;20992;-57
2023/05/29 11:47:56;;;;;;;2.38;0.80;;;28.30;52.50;;;;;;5097165;28;20434;-58
2023/05/29 11:50:24;;;;;;;1.65;0.80;;;28.40;50.80;;;;;;5098675;28;20421;-57
2023/05/29 11:52:52;;;;;;;1.10;0.70;;;28.30;51.80;;;;;;5097352;28;20852;-57
2023/05/29 11:55:21;;;;;;;1.05;0.70;;;28.60;51.50;;;;;;5098048;28;20823;-56
2023/05/29 11:57:48;;;;;;;0.90;0.60;;;29.00;49.40;;;;;;5098248;28;20436;-57
2023/05/29 12:00:18;;;;;;;1.60;0.70;;;29.20;47.90;;;;;;5097388;28;20426;-58
2023/05/29 12:02:46;;;;;;;1.30;0.60;;;29.50;47.10;;;;;;5098202;28;20421;-55
2023/05/29 12:05:15;;;;;;;1.17;0.73;;;29.30;46.30;;;;;;5096996;28;20437;-57
2023/05/29 12:07:49;;;;;;;1.00;0.70;;;29.30;45.20;;;;;;5098179;28;20436;-57
2023/05/29 12:10:17;;;;;;;1.40;0.70;;;28.80;44.90;;;;;;5098111;28;20453;-58
2023/05/29 12:12:51;;;;;;;1.60;0.60;;;28.80;45.40;;;;;;5096796;28;20486;-57
2023/05/29 12:15:19;;;;;;;1.20;0.60;;;28.60;45.90;;;;;;5096811;28;20850;-58
2023/05/29 12:17:46;;;;;;;1.20;0.70;;;28.30;45.20;;;;;;5097583;28;20503;-58
2023/05/29 12:20:14;;;;;;;1.02;0.70;;;28.50;45.40;;;;;;5097694;28;20430;-58
2023/05/29 12:22:42;;;;;;;0.90;0.60;;;28.70;45.30;;;;;;5096016;28;20486;-57
2023/05/29 12:25:11;;;;;;;1.30;0.70;;;29.30;43.70;;;;;;5097356;28;20440;-57
2023/05/29 12:27:42;;;;;;;1.00;0.70;;;29.30;43.80;;;;;;5096706;28;20492;-56
2023/05/29 12:30:14;;;;;;;1.10;0.60;;;29.00;43.20;;;;;;5106179;28;20526;-57
2023/05/29 12:32:43;;;;;;;1.27;0.60;;;29.00;43.40;;;;;;5109847;28;20430;-56
2023/05/29 12:35:18;;;;;;;1.77;0.70;;;28.90;44.00;;;;;;5097852;28;20432;-57
2023/05/29 12:37:47;;;;;;;1.30;0.70;;;29.40;41.60;;;;;;5097520;28;20733;-57
2023/05/29 12:40:19;;;;;;;1.30;0.60;;;29.70;39.70;;;;;;5097334;28;20607;-57
2023/05/29 12:42:48;;;;;;;0.88;0.60;;;29.50;40.70;;;;;;5116911;28;20581;-58
2023/05/29 12:45:19;;;;;;;1.10;0.68;;;29.30;40.40;;;;;;5114073;28;20519;-56
2023/05/29 12:47:47;;;;;;;1.20;0.60;;;29.20;40.30;;;;;;5109627;28;20508;-56
2023/05/29 12:50:25;;;;;;;0.90;0.60;;;29.00;40.50;;;;;;5094167;28;20532;-56
2023/05/29 12:52:57;;;;;;;1.00;0.70;;;29.10;41.40;;;;;;5101971;28;20454;-57
2023/05/29 12:55:24;;;;;;;1.35;0.60;;;29.00;40.00;;;;;;5103895;28;20754;-56